Murdock, Kansas
Current Conditions -  °F | °C
As of 2:53 PM on Thursday 18 Dec 2014 (Local Time) from KICT Reporting Station
Broken Clouds Broken Clouds  
Wind Chill: 30°   Ceiling: 1000
Heat Index: 36°   Visibility: 10mi
Dew Point: 30°   Wind: 7mph
Humidity: 79%   Direction: 360°N
Pressure: 30.16"   Gusts: NA
Location:  37.61°N, 97.93°W
Report Text: KICT 182053Z 36006KT 10SM BKN010 BKN065 02/M01 A3016 RMK AO2 SLP223 T00221011 56010
Loading
Personal Weather Stations






























Interactive Weather Map New forecast layout! Learn more

10-Day Weather Forecast

Advertisements
Track Severe Weather on mobile